Terminal Aerodrome Forecast
Issued by NWS

Home | Current Version | Previous Version | Text Only | Print | Product List | Glossary On
Versions: 1 2 3 4 5 6 7 8 9 10 11 12 13 14 15 16
000
FTUS43 KPAH 022339
TAFCGI
TAF
KCGI 022339Z 0300/0324 07006KT P6SM BKN040
     FM030500 12005KT P6SM OVC020
     FM031000 15005KT P6SM FEW009 OVC015
     FM031500 20008KT 6SM -SHRA OVC012
     FM032000 20010KT 5SM -RA BR OVC010=

USA.gov is the U.S. government's official web portal to all federal, state and local government web resources and services.